createdAt,value
2023-03-16T00:01:50.317Z,3.23
2023-03-16T00:04:54.254Z,3.21
2023-03-16T00:07:54.283Z,3.17
2023-03-16T00:10:54.348Z,3.09
2023-03-16T00:13:54.252Z,3.16
2023-03-16T00:16:54.267Z,3.16
2023-03-16T00:19:54.322Z,3.16
2023-03-16T00:22:54.262Z,3.11
2023-03-16T00:25:54.313Z,3.14
2023-03-16T00:28:54.297Z,3.11
2023-03-16T00:31:54.319Z,3.12
2023-03-16T00:34:54.292Z,3.09
2023-03-16T00:37:54.340Z,3.07
2023-03-16T00:40:54.262Z,3.09
2023-03-16T00:43:55.235Z,3.07
2023-03-16T00:46:55.303Z,3.04
2023-03-16T00:49:57.290Z,3.00
2023-03-16T00:53:00.248Z,2.87
2023-03-16T00:56:00.280Z,2.93
2023-03-16T00:59:04.261Z,2.90
2023-03-16T01:02:04.285Z,2.91
2023-03-16T01:05:05.297Z,2.90
2023-03-16T01:08:06.264Z,2.93
2023-03-16T01:11:06.262Z,2.94
2023-03-16T01:14:06.242Z,2.98
2023-03-16T01:17:07.316Z,2.99
2023-03-16T01:20:07.299Z,2.99
2023-03-16T01:23:07.262Z,3.01
2023-03-16T01:26:07.285Z,3.01
2023-03-16T01:29:07.266Z,3.02
2023-03-16T01:32:07.254Z,3.01
2023-03-16T01:35:07.252Z,2.91
2023-03-16T01:38:07.297Z,2.96
2023-03-16T01:41:08.248Z,3.03
2023-03-16T01:44:08.265Z,3.04
2023-03-16T01:47:08.272Z,2.92
2023-03-16T01:50:10.270Z,3.01
2023-03-16T01:53:10.294Z,3.00
2023-03-16T01:56:10.274Z,3.01
2023-03-16T01:59:11.255Z,3.02
2023-03-16T02:02:11.281Z,3.03
2023-03-16T02:05:30.289Z,3.05
2023-03-16T02:08:30.245Z,3.05
2023-03-16T02:11:30.259Z,3.06
2023-03-16T02:14:31.278Z,2.91
2023-03-16T02:17:36.257Z,2.87
2023-03-16T02:21:23.266Z,3.03
2023-03-16T02:24:23.287Z,3.02
2023-03-16T02:27:30.233Z,3.04
2023-03-16T02:30:32.262Z,3.01
2023-03-16T02:33:33.270Z,3.01
2023-03-16T02:36:27.260Z,2.97
2023-03-16T02:39:13.291Z,2.87
2023-03-16T02:42:14.277Z,2.90
2023-03-16T02:45:14.273Z,2.69
2023-03-16T02:48:16.259Z,2.85
2023-03-16T02:51:16.461Z,2.80
2023-03-16T02:54:16.222Z,2.61
2023-03-16T02:57:16.285Z,2.76
2023-03-16T03:00:25.276Z,2.73
2023-03-16T03:03:25.345Z,2.70
2023-03-16T03:06:25.248Z,2.72
2023-03-16T03:09:25.285Z,2.69
2023-03-16T03:12:25.276Z,2.67
2023-03-16T03:15:25.293Z,2.55
2023-03-16T03:18:26.226Z,2.64
2023-03-16T03:21:26.273Z,2.64
2023-03-16T03:24:26.266Z,2.53
2023-03-16T03:27:26.310Z,2.65
2023-03-16T03:30:34.242Z,2.63
2023-03-16T03:33:34.233Z,2.55
2023-03-16T03:36:34.306Z,2.61
2023-03-16T03:39:34.273Z,2.58
2023-03-16T03:42:34.255Z,2.58
2023-03-16T03:45:34.255Z,2.48
2023-03-16T03:48:34.284Z,2.59
2023-03-16T03:51:34.244Z,2.59
2023-03-16T03:54:34.255Z,2.57
2023-03-16T03:57:35.251Z,2.57
2023-03-16T04:00:28.525Z,2.55
2023-03-16T04:03:08.566Z,2.54
2023-03-16T04:05:55.234Z,2.54
2023-03-16T04:08:41.288Z,2.52
2023-03-16T04:11:41.262Z,2.51
2023-03-16T04:14:41.237Z,2.44
2023-03-16T04:17:41.234Z,2.33
2023-03-16T04:20:41.290Z,2.49
2023-03-16T04:23:41.291Z,2.46
2023-03-16T04:26:41.236Z,2.46
2023-03-16T04:29:41.237Z,2.43
2023-03-16T04:32:41.259Z,2.40
2023-03-16T04:35:42.294Z,2.40
2023-03-16T04:38:43.255Z,2.40
2023-03-16T04:41:43.245Z,2.39
2023-03-16T04:44:50.233Z,2.37
2023-03-16T04:47:50.242Z,2.39
2023-03-16T04:50:50.265Z,2.43
2023-03-16T04:53:51.246Z,2.43
2023-03-16T04:56:52.264Z,2.44
2023-03-16T04:59:52.285Z,2.46
2023-03-16T05:02:52.232Z,2.46
2023-03-16T05:05:52.321Z,2.47
2023-03-16T05:08:53.239Z,2.50
2023-03-16T05:11:53.249Z,2.51
2023-03-16T05:14:53.267Z,2.55
2023-03-16T05:17:54.257Z,2.58
2023-03-16T05:20:55.239Z,2.60
2023-03-16T05:23:57.274Z,2.63
2023-03-16T05:26:57.278Z,2.51
2023-03-16T05:29:57.233Z,2.53
2023-03-16T05:32:58.341Z,2.68
2023-03-16T05:35:58.325Z,2.68
2023-03-16T05:38:59.298Z,2.70
2023-03-16T05:42:01.250Z,2.72
2023-03-16T05:45:02.284Z,2.73
2023-03-16T05:48:02.278Z,2.76
2023-03-16T05:51:04.246Z,2.80
2023-03-16T05:54:04.265Z,2.84
2023-03-16T05:57:05.305Z,2.87
2023-03-16T06:00:05.248Z,3.00
2023-03-16T06:03:23.277Z,3.14
2023-03-16T06:06:24.235Z,3.21
2023-03-16T06:09:24.258Z,3.32
2023-03-16T06:12:25.386Z,3.40
2023-03-16T06:15:26.219Z,3.24
2023-03-16T06:18:37.355Z,3.54
2023-03-16T06:21:49.319Z,3.28
2023-03-16T06:25:01.067Z,3.41
2023-03-16T06:28:12.917Z,3.76
2023-03-16T06:31:27.362Z,3.78
2023-03-16T06:34:31.674Z,3.78
2023-03-16T06:37:35.377Z,3.87
2023-03-16T06:40:36.789Z,4.08
2023-03-16T06:43:36.376Z,4.26
2023-03-16T06:46:58.624Z,4.41
2023-03-16T06:53:02.577Z,4.43
2023-03-16T06:56:10.440Z,4.57
2023-03-16T06:59:10.321Z,4.56
2023-03-16T07:02:10.426Z,4.81
2023-03-16T07:05:22.764Z,4.92
2023-03-16T07:08:40.352Z,4.80
2023-03-16T07:11:53.712Z,4.53
2023-03-16T07:14:59.153Z,4.41
2023-03-16T07:18:04.284Z,4.42
2023-03-16T07:21:10.348Z,4.30
2023-03-16T07:24:13.374Z,4.38
2023-03-16T07:27:13.227Z,4.38
2023-03-16T07:30:14.391Z,4.31
2023-03-16T07:33:18.360Z,4.48
2023-03-16T07:36:18.323Z,4.53
2023-03-16T07:39:23.974Z,4.82
2023-03-16T07:42:53.312Z,5.02
2023-03-16T07:45:55.308Z,5.13
2023-03-16T07:48:56.276Z,5.46
2023-03-16T07:51:59.234Z,5.52
2023-03-16T07:55:00.233Z,5.95
2023-03-16T07:58:08.369Z,6.62
2023-03-16T08:01:15.701Z,6.91
2023-03-16T08:04:19.284Z,7.93
2023-03-16T08:07:19.260Z,7.08
2023-03-16T08:10:19.300Z,7.51
2023-03-16T08:13:20.250Z,7.72
2023-03-16T08:16:22.926Z,7.41
2023-03-16T08:19:24.296Z,7.93
2023-03-16T08:22:25.239Z,7.88
2023-03-16T08:25:26.253Z,8.12
2023-03-16T08:28:28.305Z,8.24
2023-03-16T08:31:32.326Z,7.70
2023-03-16T08:34:33.342Z,7.25
2023-03-16T08:37:34.371Z,6.90
2023-03-16T08:40:36.282Z,6.23
2023-03-16T08:43:36.253Z,6.04
2023-03-16T08:46:36.314Z,6.43
2023-03-16T08:49:31.518Z,6.71
2023-03-16T08:52:34.189Z,7.76
2023-03-16T08:55:39.630Z,7.91
2023-03-16T09:01:38.432Z,9.44
2023-03-16T09:04:39.313Z,8.78
2023-03-16T09:07:45.534Z,8.74
2023-03-16T09:11:47.071Z,9.51
2023-03-16T09:14:54.297Z,10.23
2023-03-16T09:17:58.577Z,10.58
2023-03-16T09:20:59.988Z,9.97
2023-03-16T09:24:01.260Z,8.97
2023-03-16T09:27:03.496Z,9.14
2023-03-16T09:30:07.267Z,10.10
2023-03-16T09:33:07.337Z,11.33
2023-03-16T09:36:14.114Z,10.96
2023-03-16T09:39:15.292Z,10.49
2023-03-16T09:42:31.501Z,10.48
2023-03-16T09:45:48.357Z,10.28
2023-03-16T09:48:49.265Z,9.87
2023-03-16T09:51:56.248Z,10.29
2023-03-16T09:55:21.502Z,9.60
2023-03-16T09:58:32.649Z,9.09
2023-03-16T10:02:21.306Z,9.75
2023-03-16T10:05:24.420Z,9.58
2023-03-16T10:08:38.694Z,8.83
2023-03-16T10:11:59.034Z,10.09
2023-03-16T10:15:23.264Z,9.55
2023-03-16T10:18:30.245Z,10.85
2023-03-16T10:21:33.277Z,10.78
2023-03-16T10:24:58.309Z,11.51
2023-03-16T10:27:59.360Z,11.65
2023-03-16T10:31:04.290Z,12.18
2023-03-16T10:34:10.278Z,12.79
2023-03-16T10:37:11.358Z,13.20
2023-03-16T10:40:11.257Z,12.23
2023-03-16T10:43:11.265Z,12.30
2023-03-16T10:46:18.390Z,11.78
2023-03-16T10:49:45.119Z,12.44
2023-03-16T10:52:59.320Z,12.69
2023-03-16T10:56:23.167Z,12.16
2023-03-16T10:59:42.380Z,12.88
2023-03-16T11:02:47.358Z,13.65
2023-03-16T11:05:48.298Z,13.47
2023-03-16T11:09:43.953Z,13.17
2023-03-16T11:12:28.354Z,12.15
2023-03-16T11:15:28.383Z,13.50
2023-03-16T11:18:46.285Z,12.33
2023-03-16T11:22:13.379Z,12.71
2023-03-16T11:25:17.463Z,12.35
2023-03-16T11:28:20.269Z,11.79
2023-03-16T11:31:25.406Z,13.01
2023-03-16T11:34:46.237Z,13.58
2023-03-16T11:38:01.340Z,12.49
2023-03-16T11:41:28.657Z,13.07
2023-03-16T11:44:43.319Z,13.75
2023-03-16T11:48:10.063Z,13.89
2023-03-16T11:51:31.322Z,13.66
2023-03-16T11:55:08.311Z,14.26
2023-03-16T11:58:38.293Z,13.05
2023-03-16T12:02:15.494Z,11.65
2023-03-16T12:05:44.950Z,13.69
2023-03-16T12:08:54.318Z,14.20
2023-03-16T12:12:12.288Z,13.80
2023-03-16T12:15:31.846Z,13.68
2023-03-16T12:18:36.311Z,14.42
2023-03-16T12:21:39.304Z,14.92
2023-03-16T12:24:43.312Z,13.40
2023-03-16T12:27:49.331Z,13.71
2023-03-16T12:30:58.271Z,11.76
2023-03-16T12:34:03.322Z,12.97
2023-03-16T12:37:16.329Z,11.93
2023-03-16T12:40:32.958Z,11.44
2023-03-16T12:44:07.332Z,11.35
2023-03-16T12:50:37.281Z,10.91
2023-03-16T12:53:41.284Z,11.79
2023-03-16T12:56:58.231Z,12.10
2023-03-16T13:00:00.309Z,11.71
2023-03-16T13:03:06.312Z,11.50
2023-03-16T13:06:10.279Z,12.26
2023-03-16T13:09:11.324Z,11.60
2023-03-16T13:12:14.466Z,11.34
2023-03-16T13:15:14.298Z,12.00
2023-03-16T13:18:19.324Z,11.57
2023-03-16T13:21:52.278Z,11.77
2023-03-16T13:24:53.256Z,11.38
2023-03-16T13:27:47.323Z,10.80
2023-03-16T13:30:29.765Z,10.72
2023-03-16T13:33:27.331Z,10.74
2023-03-16T13:36:07.460Z,10.63
2023-03-16T13:39:17.312Z,10.58
2023-03-16T13:42:30.330Z,9.29
2023-03-16T13:45:33.648Z,9.01
2023-03-16T13:48:34.290Z,8.79
2023-03-16T13:51:35.280Z,8.75
2023-03-16T13:54:43.309Z,8.76
2023-03-16T13:57:46.293Z,8.83
2023-03-16T14:00:49.309Z,8.52
2023-03-16T14:03:52.276Z,8.00
2023-03-16T14:06:52.301Z,7.78
2023-03-16T14:09:53.292Z,7.70
2023-03-16T14:12:53.287Z,8.15
2023-03-16T14:15:53.393Z,8.43
2023-03-16T14:19:31.329Z,8.36
2023-03-16T14:22:37.301Z,8.26
2023-03-16T14:25:39.325Z,8.36
2023-03-16T14:28:45.291Z,8.51
2023-03-16T14:31:50.376Z,8.74
2023-03-16T14:34:52.327Z,8.94
2023-03-16T14:37:52.306Z,8.89
2023-03-16T14:40:52.336Z,8.80
2023-03-16T14:43:58.286Z,8.91
2023-03-16T14:46:58.284Z,8.45
2023-03-16T14:49:58.316Z,7.90
2023-03-16T14:52:58.330Z,7.80
2023-03-16T14:55:58.318Z,7.69
2023-03-16T14:58:58.306Z,7.68
2023-03-16T15:01:58.423Z,7.64
2023-03-16T15:04:58.290Z,8.00
2023-03-16T15:07:59.295Z,7.89
2023-03-16T15:10:59.361Z,8.02
2023-03-16T15:14:10.331Z,7.91
2023-03-16T15:17:11.351Z,7.70
2023-03-16T15:20:11.297Z,7.48
2023-03-16T15:23:11.308Z,7.33
2023-03-16T15:26:14.275Z,7.13
2023-03-16T15:29:14.298Z,6.93
2023-03-16T15:32:14.292Z,6.88
2023-03-16T15:35:14.251Z,6.74
2023-03-16T15:38:21.259Z,6.62
2023-03-16T15:41:24.864Z,6.56
2023-03-16T15:44:26.344Z,6.36
2023-03-16T15:47:26.325Z,6.45
2023-03-16T15:50:27.560Z,6.44
2023-03-16T15:53:45.288Z,6.27
2023-03-16T15:56:54.622Z,6.33
2023-03-16T15:59:54.254Z,6.15
2023-03-16T16:02:54.293Z,6.20
2023-03-16T16:05:54.259Z,6.16
2023-03-16T16:08:54.311Z,5.93
2023-03-16T16:11:55.320Z,6.00
2023-03-16T16:14:55.283Z,5.72
2023-03-16T16:18:19.327Z,5.85
2023-03-16T16:21:17.262Z,5.82
2023-03-16T16:24:17.281Z,5.58
2023-03-16T16:27:17.295Z,5.56
2023-03-16T16:30:29.316Z,5.52
2023-03-16T16:33:45.304Z,5.40
2023-03-16T16:36:45.301Z,5.36
2023-03-16T16:39:45.318Z,5.21
2023-03-16T16:42:45.282Z,5.06
2023-03-16T16:45:45.348Z,4.99
2023-03-16T16:48:51.325Z,4.85
2023-03-16T16:51:51.281Z,4.64
2023-03-16T16:54:51.325Z,4.44
2023-03-16T16:57:51.286Z,4.46
2023-03-16T17:00:51.324Z,4.28
2023-03-16T17:03:51.314Z,4.18
2023-03-16T17:06:52.334Z,4.06
2023-03-16T17:09:52.286Z,3.92
2023-03-16T17:12:52.251Z,4.03
2023-03-16T17:15:53.284Z,3.96
2023-03-16T17:18:53.257Z,3.88
2023-03-16T17:21:53.323Z,3.97
2023-03-16T17:24:54.281Z,3.83
2023-03-16T17:27:54.339Z,3.70
2023-03-16T17:30:55.360Z,3.68
2023-03-16T17:33:55.351Z,3.56
2023-03-16T17:36:55.328Z,3.43
2023-03-16T17:39:57.380Z,3.44
2023-03-16T17:42:58.319Z,3.21
2023-03-16T17:45:59.324Z,3.27
2023-03-16T17:48:59.314Z,3.15
2023-03-16T17:51:59.308Z,3.04
2023-03-16T17:55:00.286Z,3.15
2023-03-16T17:58:04.277Z,3.05
2023-03-16T18:01:04.289Z,3.01
2023-03-16T18:04:04.323Z,2.92
2023-03-16T18:07:04.274Z,2.85
2023-03-16T18:10:04.322Z,2.78
2023-03-16T18:13:31.283Z,2.78
2023-03-16T18:16:37.321Z,2.69
2023-03-16T18:19:38.342Z,2.51
2023-03-16T18:22:38.251Z,2.42
2023-03-16T18:25:50.324Z,2.31
2023-03-16T18:28:50.286Z,2.20
2023-03-16T18:31:50.306Z,2.05
2023-03-16T18:34:50.278Z,1.95
2023-03-16T18:37:50.322Z,1.85
2023-03-16T18:40:50.291Z,1.84
2023-03-16T18:43:50.274Z,1.81
2023-03-16T18:46:51.335Z,1.79
2023-03-16T18:49:54.261Z,1.68
2023-03-16T18:52:54.329Z,1.65
2023-03-16T18:55:57.228Z,1.65
2023-03-16T18:58:57.295Z,1.72
2023-03-16T19:01:58.412Z,1.63
2023-03-16T19:04:58.298Z,1.59
2023-03-16T19:07:59.277Z,1.54
2023-03-16T19:11:03.278Z,1.48
2023-03-16T19:14:03.455Z,1.29
2023-03-16T19:17:03.269Z,1.28
2023-03-16T19:20:03.284Z,1.45
2023-03-16T19:23:04.256Z,1.38
2023-03-16T19:26:05.299Z,1.26
2023-03-16T19:29:05.298Z,1.20
2023-03-16T19:32:11.280Z,1.18
2023-03-16T19:35:12.270Z,1.35
2023-03-16T19:38:12.310Z,1.33
2023-03-16T19:41:13.295Z,1.38
2023-03-16T19:44:33.282Z,1.34
2023-03-16T19:47:44.307Z,1.49
2023-03-16T19:50:44.274Z,1.54
2023-03-16T19:53:44.275Z,1.63
2023-03-16T19:56:44.270Z,1.60
2023-03-16T19:59:46.318Z,1.43
2023-03-16T20:02:49.267Z,1.26
2023-03-16T20:05:49.305Z,1.11
2023-03-16T20:08:49.312Z,1.11
2023-03-16T20:11:49.259Z,1.01
2023-03-16T20:14:49.326Z,0.97
2023-03-16T20:17:50.313Z,1.00
2023-03-16T20:20:50.275Z,0.93
2023-03-16T20:23:50.291Z,0.83
2023-03-16T20:26:50.308Z,0.72
2023-03-16T20:29:50.320Z,0.45
2023-03-16T20:32:50.300Z,0.69
2023-03-16T20:35:50.277Z,0.60
2023-03-16T20:38:50.266Z,0.54
2023-03-16T20:41:50.253Z,0.52
2023-03-16T20:44:50.306Z,0.47
2023-03-16T20:47:50.267Z,0.40
2023-03-16T20:50:50.287Z,0.40
2023-03-16T20:53:50.266Z,0.37
2023-03-16T20:56:50.278Z,0.35
2023-03-16T20:59:50.261Z,0.36
2023-03-16T21:02:50.312Z,0.27
2023-03-16T21:05:50.257Z,0.21
2023-03-16T21:08:50.313Z,0.18
2023-03-16T21:11:52.245Z,0.22
2023-03-16T21:14:52.250Z,0.14
2023-03-16T21:17:52.255Z,0.10
2023-03-16T21:20:52.242Z,-0.04
2023-03-16T21:23:52.294Z,0.08
2023-03-16T21:26:54.230Z,0.05
2023-03-16T21:29:47.293Z,0.00
2023-03-16T21:32:28.562Z,-0.19
2023-03-16T21:35:20.326Z,-0.13
2023-03-16T21:38:06.222Z,-0.35
2023-03-16T21:41:06.297Z,-0.13
2023-03-16T21:44:06.264Z,-0.15
2023-03-16T21:47:06.289Z,-0.19
2023-03-16T21:50:06.293Z,-0.09
2023-03-16T21:53:06.272Z,-0.09
2023-03-16T21:56:06.299Z,-0.13
2023-03-16T21:59:00.258Z,0.05
2023-03-16T22:01:50.973Z,0.01
2023-03-16T22:04:45.258Z,-0.02
2023-03-16T22:07:25.472Z,-0.08
2023-03-16T22:10:21.281Z,-0.14
2023-03-16T22:13:02.199Z,-0.18
2023-03-16T22:16:03.255Z,-0.25
2023-03-16T22:19:05.238Z,-0.37
2023-03-16T22:22:05.290Z,-0.14
2023-03-16T22:25:05.214Z,-0.20
2023-03-16T22:28:05.279Z,-0.29
2023-03-16T22:31:05.247Z,-0.34
2023-03-16T22:34:05.295Z,-0.53
2023-03-16T22:37:05.263Z,-0.57
2023-03-16T22:40:05.267Z,-0.39
2023-03-16T22:43:05.225Z,-0.45
2023-03-16T22:46:05.278Z,-0.44
2023-03-16T22:49:06.221Z,-0.45
2023-03-16T22:52:08.279Z,-0.54
2023-03-16T22:55:08.295Z,-0.51
2023-03-16T22:58:21.253Z,-0.60
2023-03-16T23:01:35.299Z,-0.60
2023-03-16T23:04:40.355Z,-0.66
2023-03-16T23:07:40.267Z,-0.63
2023-03-16T23:10:40.243Z,-0.68
2023-03-16T23:13:40.272Z,-0.64
2023-03-16T23:16:41.297Z,-0.76
2023-03-16T23:19:46.304Z,-0.74
2023-03-16T23:22:47.287Z,-0.89
2023-03-16T23:25:48.313Z,-0.92
2023-03-16T23:28:48.309Z,-0.79
2023-03-16T23:31:48.259Z,-0.82
2023-03-16T23:34:48.297Z,-0.91
2023-03-16T23:37:48.251Z,-0.98
2023-03-16T23:40:50.266Z,-0.93
2023-03-16T23:43:50.280Z,-1.19
2023-03-16T23:46:50.224Z,-1.12
2023-03-16T23:49:52.284Z,-1.14
2023-03-16T23:52:52.274Z,-1.33
2023-03-16T23:55:53.244Z,-1.28
2023-03-16T23:58:53.266Z,-1.34
